Time;durP1;ratioP1;P1;durP2;ratioP2;P2;SDS_P1;SDS_P2;PMS_P1;PMS_P2;Temp;Humidity;BMP_temperature;BMP_pressure;BME280_temperature;BME280_humidity;BME280_pressure;Samples;Min_cycle;Max_cycle;Signal;HPM_P1;HPM_P2
2023/04/24 00:01:14;;;;;;;8.45;6.35;;;13.90;99.90;;;;;;5098245;28;20036;-73
2023/04/24 00:03:41;;;;;;;6.78;5.15;;;13.90;99.90;;;;;;5098117;28;20047;-72
2023/04/24 00:06:07;;;;;;;6.78;5.65;;;14.00;99.90;;;;;;5098163;28;20177;-72
2023/04/24 00:08:34;;;;;;;7.22;5.63;;;14.10;99.90;;;;;;5098119;28;20325;-73
2023/04/24 00:11:00;;;;;;;7.75;4.90;;;14.10;99.90;;;;;;5097654;28;20043;-73
2023/04/24 00:13:28;;;;;;;6.65;4.95;;;14.20;99.90;;;;;;5097994;28;20040;-73
2023/04/24 00:15:57;;;;;;;5.95;4.00;;;14.20;99.90;;;;;;5098012;28;20452;-72
2023/04/24 00:18:22;;;;;;;5.55;3.70;;;14.00;99.90;;;;;;5097955;28;20035;-72
2023/04/24 00:20:48;;;;;;;3.75;2.40;;;13.80;99.90;;;;;;5097902;28;20378;-72
2023/04/24 00:23:14;;;;;;;3.75;1.77;;;13.30;99.90;;;;;;5096324;28;20090;-73
2023/04/24 00:25:39;;;;;;;2.33;1.60;;;13.10;99.90;;;;;;5097818;28;20040;-72
2023/04/24 00:28:05;;;;;;;1.73;1.20;;;13.10;99.90;;;;;;5097747;28;20067;-72
2023/04/24 00:30:31;;;;;;;1.98;1.10;;;12.90;99.90;;;;;;5097732;28;20123;-73
2023/04/24 00:32:57;;;;;;;1.48;1.00;;;12.90;99.90;;;;;;5097744;28;20051;-73
2023/04/24 00:35:23;;;;;;;2.40;0.90;;;12.80;99.90;;;;;;5097627;28;20048;-72
2023/04/24 00:37:49;;;;;;;2.63;1.23;;;12.90;99.90;;;;;;5097601;28;20097;-72
2023/04/24 00:40:15;;;;;;;1.75;1.00;;;12.90;99.90;;;;;;5096847;28;20055;-73
2023/04/24 00:42:41;;;;;;;1.30;0.90;;;12.80;99.90;;;;;;5096111;28;20052;-72
2023/04/24 00:45:07;;;;;;;1.02;0.73;;;12.40;99.90;;;;;;5097465;28;20028;-72
2023/04/24 00:47:34;;;;;;;1.05;0.75;;;12.20;99.90;;;;;;5097393;28;20046;-72
2023/04/24 00:50:02;;;;;;;1.38;0.80;;;12.00;99.90;;;;;;5097100;28;20429;-72
2023/04/24 00:52:30;;;;;;;1.00;0.80;;;12.00;99.90;;;;;;5097102;28;20429;-72
2023/04/24 00:54:56;;;;;;;0.90;0.70;;;12.00;99.90;;;;;;5097321;28;20039;-72
2023/04/24 00:57:23;;;;;;;2.58;0.90;;;12.20;99.90;;;;;;5096951;28;20063;-73
2023/04/24 00:59:49;;;;;;;3.45;0.80;;;12.30;99.90;;;;;;5097259;28;20109;-73
2023/04/24 01:02:15;;;;;;;1.13;0.77;;;12.20;99.90;;;;;;5096931;28;20324;-73
2023/04/24 01:04:41;;;;;;;2.05;0.70;;;12.30;99.90;;;;;;5097172;28;20115;-73
2023/04/24 01:07:10;;;;;;;1.83;0.75;;;12.40;99.90;;;;;;5095863;28;20114;-73
2023/04/24 01:09:39;;;;;;;1.42;0.70;;;12.30;99.90;;;;;;5096314;28;20040;-73
2023/04/24 01:12:05;;;;;;;0.90;0.70;;;12.30;99.90;;;;;;5096788;28;20048;-73
2023/04/24 01:14:31;;;;;;;1.83;0.80;;;12.30;99.90;;;;;;5097044;28;20329;-73
2023/04/24 01:16:57;;;;;;;3.53;1.65;;;12.50;99.90;;;;;;5096991;28;20036;-73
2023/04/24 01:19:23;;;;;;;1.40;0.98;;;12.60;99.90;;;;;;5097200;28;20425;-73
2023/04/24 01:21:53;;;;;;;1.02;0.85;;;12.60;99.90;;;;;;5096874;28;20047;-73
2023/04/24 01:24:19;;;;;;;3.05;0.95;;;12.50;99.90;;;;;;5096573;28;20044;-73
2023/04/24 01:26:46;;;;;;;1.08;0.98;;;12.40;99.90;;;;;;5096923;28;20372;-73
2023/04/24 01:29:12;;;;;;;2.85;1.27;;;12.40;99.90;;;;;;5096602;28;20429;-73
2023/04/24 01:31:39;;;;;;;0.82;0.82;;;12.60;99.90;;;;;;5096777;28;20036;-73
2023/04/24 01:34:05;;;;;;;2.45;1.17;;;12.60;99.90;;;;;;5095889;28;20040;-73
2023/04/24 01:36:32;;;;;;;1.80;1.27;;;12.80;99.90;;;;;;5096772;28;20040;-73
2023/04/24 01:38:58;;;;;;;1.63;1.00;;;12.80;99.90;;;;;;5095875;28;20042;-73
2023/04/24 01:41:25;;;;;;;2.70;1.80;;;12.70;99.90;;;;;;5096315;28;20111;-73
2023/04/24 01:43:51;;;;;;;1.80;1.38;;;12.70;99.90;;;;;;5096443;28;20508;-73
2023/04/24 01:46:17;;;;;;;2.50;1.40;;;12.80;99.90;;;;;;5095780;28;20068;-73
2023/04/24 01:48:44;;;;;;;1.67;1.40;;;12.90;99.90;;;;;;5096707;28;20409;-73
2023/04/24 01:51:10;;;;;;;1.90;1.70;;;12.80;99.90;;;;;;5096671;28;20078;-73
2023/04/24 01:53:35;;;;;;;1.55;1.30;;;12.90;99.90;;;;;;5096601;28;20036;-73
2023/04/24 01:56:02;;;;;;;2.10;1.70;;;13.00;99.90;;;;;;5096316;28;20048;-73
2023/04/24 01:58:28;;;;;;;2.33;1.70;;;13.00;99.90;;;;;;5096352;28;20123;-73
2023/04/24 02:00:56;;;;;;;2.65;2.10;;;12.80;99.90;;;;;;5096618;28;20170;-73
2023/04/24 02:03:22;;;;;;;3.08;1.88;;;12.80;99.90;;;;;;5096450;28;20051;-73
2023/04/24 02:05:48;;;;;;;2.22;1.85;;;12.90;99.90;;;;;;5096571;28;20032;-73
2023/04/24 02:08:13;;;;;;;2.30;2.10;;;12.70;99.90;;;;;;5096484;28;20035;-73
2023/04/24 02:10:39;;;;;;;3.25;2.88;;;12.50;99.90;;;;;;5096148;28;20070;-73
2023/04/24 02:13:05;;;;;;;3.08;2.78;;;12.60;99.90;;;;;;5096514;28;20036;-73
2023/04/24 02:15:30;;;;;;;3.30;2.50;;;12.60;99.90;;;;;;5095156;28;20050;-73
2023/04/24 02:17:57;;;;;;;3.17;2.88;;;12.70;99.90;;;;;;5095481;28;20044;-73
2023/04/24 02:20:23;;;;;;;7.75;4.05;;;12.50;99.90;;;;;;5097094;28;20380;-73
2023/04/24 02:22:49;;;;;;;4.25;3.55;;;12.60;99.90;;;;;;5099792;28;20376;-73
2023/04/24 02:25:14;;;;;;;8.07;5.20;;;12.60;99.90;;;;;;5100122;28;20044;-73
2023/04/24 02:27:40;;;;;;;4.45;4.05;;;12.60;99.90;;;;;;5100046;28;20420;-73
2023/04/24 02:30:07;;;;;;;6.70;4.80;;;12.40;99.90;;;;;;5100024;28;20040;-73
2023/04/24 02:32:33;;;;;;;5.40;4.60;;;12.30;99.90;;;;;;5099734;28;20047;-73
2023/04/24 02:34:59;;;;;;;5.30;4.65;;;12.30;99.90;;;;;;5099966;28;20044;-73
2023/04/24 02:37:25;;;;;;;8.48;6.03;;;12.40;99.90;;;;;;5099885;28;20043;-73
2023/04/24 02:39:50;;;;;;;9.50;5.90;;;12.40;99.90;;;;;;5099515;28;20044;-73
2023/04/24 02:42:16;;;;;;;6.03;5.43;;;12.30;99.90;;;;;;5099274;28;20040;-73
2023/04/24 02:44:42;;;;;;;5.82;5.05;;;12.30;99.90;;;;;;5099798;28;20110;-73
2023/04/24 02:47:08;;;;;;;8.27;6.55;;;12.50;99.90;;;;;;5099414;28;20047;-73
2023/04/24 02:49:34;;;;;;;7.03;6.03;;;12.60;99.90;;;;;;5099383;28;20444;-73
2023/04/24 02:51:59;;;;;;;10.60;7.30;;;12.60;99.90;;;;;;5098676;28;20048;-73
2023/04/24 02:54:25;;;;;;;9.35;7.07;;;12.50;99.90;;;;;;5099594;28;20476;-73
2023/04/24 02:56:51;;;;;;;6.30;5.65;;;12.50;99.90;;;;;;5099273;28;20383;-73
2023/04/24 02:59:16;;;;;;;6.10;5.40;;;12.50;99.90;;;;;;5099152;28;20032;-73
2023/04/24 03:01:42;;;;;;;9.82;6.97;;;12.50;99.90;;;;;;5099351;28;20032;-73
2023/04/24 03:04:08;;;;;;;8.75;7.30;;;12.60;99.90;;;;;;5099387;28;20036;-74
2023/04/24 03:06:35;;;;;;;7.93;6.70;;;12.50;99.90;;;;;;5099310;28;20036;-73
2023/04/24 03:09:01;;;;;;;6.68;5.88;;;12.40;99.90;;;;;;5099308;28;20044;-73
2023/04/24 03:11:26;;;;;;;13.00;7.85;;;12.30;99.90;;;;;;5098863;28;20032;-73
2023/04/24 03:13:52;;;;;;;7.18;6.35;;;12.30;99.90;;;;;;5099204;28;20040;-73
2023/04/24 03:16:18;;;;;;;6.10;5.40;;;12.50;99.90;;;;;;5099173;28;20118;-74
2023/04/24 03:18:43;;;;;;;9.57;6.55;;;12.60;99.90;;;;;;5099090;28;20120;-73
2023/04/24 03:21:09;;;;;;;8.35;6.95;;;12.50;99.90;;;;;;5099002;28;20040;-73
2023/04/24 03:23:35;;;;;;;10.65;8.38;;;12.60;99.90;;;;;;5098570;28;20150;-73
2023/04/24 03:26:02;;;;;;;10.88;8.18;;;12.60;99.90;;;;;;5097632;28;20036;-73
2023/04/24 03:28:27;;;;;;;9.55;8.00;;;12.50;99.90;;;;;;5098949;28;20036;-73
2023/04/24 03:30:53;;;;;;;10.30;8.98;;;12.50;99.90;;;;;;5098574;28;20044;-73
2023/04/24 03:33:19;;;;;;;12.85;10.10;;;12.50;99.90;;;;;;5097937;28;20040;-73
2023/04/24 03:35:44;;;;;;;12.07;10.75;;;12.40;99.90;;;;;;5098785;28;20040;-73
2023/04/24 03:38:10;;;;;;;10.52;9.43;;;12.30;99.90;;;;;;5098771;28;20327;-73
2023/04/24 03:40:36;;;;;;;11.90;9.38;;;12.30;99.90;;;;;;5098218;28;20162;-73
2023/04/24 03:43:02;;;;;;;10.52;9.43;;;12.20;99.90;;;;;;5098213;28;20093;-73
2023/04/24 03:45:27;;;;;;;11.07;9.45;;;12.40;99.90;;;;;;5098588;28;20107;-73
2023/04/24 03:47:53;;;;;;;16.65;12.30;;;12.40;99.90;;;;;;5098514;28;20093;-73
2023/04/24 03:50:19;;;;;;;15.50;12.13;;;12.30;99.90;;;;;;5098516;28;20063;-73
2023/04/24 03:52:45;;;;;;;14.25;11.35;;;12.40;99.90;;;;;;5098065;28;20036;-73
2023/04/24 03:55:12;;;;;;;11.27;10.00;;;12.50;99.90;;;;;;5098078;28;20054;-73
2023/04/24 03:57:39;;;;;;;10.65;9.07;;;12.50;99.90;;;;;;5098379;28;20040;-73
2023/04/24 04:00:06;;;;;;;9.52;8.52;;;12.40;99.90;;;;;;5098299;28;20119;-73
2023/04/24 04:02:31;;;;;;;9.63;8.63;;;12.50;99.90;;;;;;5098186;28;20075;-73
2023/04/24 04:04:57;;;;;;;11.43;9.13;;;12.50;99.90;;;;;;5098207;28;20338;-73
2023/04/24 04:07:23;;;;;;;9.20;8.20;;;12.50;99.90;;;;;;5098145;28;20066;-73
2023/04/24 04:09:48;;;;;;;8.73;7.70;;;12.40;99.90;;;;;;5098092;28;20119;-73
2023/04/24 04:12:14;;;;;;;10.85;7.70;;;12.50;99.90;;;;;;5097639;28;20036;-73
2023/04/24 04:14:39;;;;;;;13.38;9.18;;;12.50;99.90;;;;;;5097990;28;20047;-73
2023/04/24 04:17:05;;;;;;;9.38;7.70;;;12.50;99.90;;;;;;5097636;28;20448;-73
2023/04/24 04:19:31;;;;;;;9.27;6.57;;;12.50;99.90;;;;;;5097925;28;20083;-73
2023/04/24 04:21:56;;;;;;;7.20;6.50;;;12.50;99.90;;;;;;5097828;28;20425;-73
2023/04/24 04:24:23;;;;;;;8.55;6.97;;;12.50;99.90;;;;;;5097385;28;20048;-73
2023/04/24 04:26:51;;;;;;;10.18;6.57;;;12.20;99.90;;;;;;5097517;28;20109;-73
2023/04/24 04:29:18;;;;;;;7.90;6.72;;;12.20;99.90;;;;;;5097497;28;20044;-73
2023/04/24 04:31:44;;;;;;;8.15;6.05;;;12.20;99.90;;;;;;5097440;28;20079;-73
2023/04/24 04:34:11;;;;;;;9.18;6.03;;;12.30;99.90;;;;;;5097358;28;20445;-73
2023/04/24 04:36:39;;;;;;;7.47;6.60;;;12.10;99.90;;;;;;5096655;28;20036;-73
2023/04/24 04:39:06;;;;;;;7.00;5.43;;;12.10;99.90;;;;;;5097590;28;20035;-73
2023/04/24 04:41:34;;;;;;;8.68;5.75;;;11.90;99.90;;;;;;5096883;28;20047;-73
2023/04/24 04:44:01;;;;;;;9.52;7.47;;;12.00;99.90;;;;;;5097462;28;20043;-73
2023/04/24 04:46:27;;;;;;;6.82;5.50;;;12.00;99.90;;;;;;5097157;28;20383;-73
2023/04/24 04:48:54;;;;;;;9.02;6.25;;;11.90;99.90;;;;;;5097377;28;20036;-73
2023/04/24 04:51:20;;;;;;;6.97;5.72;;;12.00;99.90;;;;;;5097100;28;20459;-73
2023/04/24 04:53:45;;;;;;;7.25;5.60;;;12.00;99.90;;;;;;5097081;28;20040;-73
2023/04/24 04:56:11;;;;;;;6.60;5.68;;;12.00;99.90;;;;;;5096965;28;20040;-73
2023/04/24 04:58:36;;;;;;;7.05;5.63;;;12.00;99.90;;;;;;5097208;28;20119;-73
2023/04/24 05:01:02;;;;;;;10.98;7.38;;;12.00;99.90;;;;;;5097173;28;20044;-73
2023/04/24 05:03:28;;;;;;;6.63;5.30;;;12.20;99.90;;;;;;5097140;28;20333;-73
2023/04/24 05:05:53;;;;;;;7.35;5.28;;;12.10;99.90;;;;;;5097231;28;20077;-73
2023/04/24 05:08:19;;;;;;;6.85;5.53;;;12.20;99.90;;;;;;5097162;28;20039;-73
2023/04/24 05:10:45;;;;;;;6.10;4.75;;;12.20;99.90;;;;;;5096626;28;20036;-73
2023/04/24 05:13:11;;;;;;;5.60;4.50;;;12.10;99.90;;;;;;5097027;28;20089;-73
2023/04/24 05:15:36;;;;;;;8.32;4.85;;;12.00;99.90;;;;;;5096731;28;20448;-73
2023/04/24 05:18:02;;;;;;;5.40;4.53;;;11.90;99.90;;;;;;5096708;28;20043;-73
2023/04/24 05:20:28;;;;;;;4.65;4.15;;;11.90;99.90;;;;;;5097033;28;20398;-73
2023/04/24 05:22:54;;;;;;;7.97;5.10;;;12.00;99.90;;;;;;5096252;28;20117;-72
2023/04/24 05:25:19;;;;;;;6.75;5.35;;;12.10;99.90;;;;;;5096889;28;20086;-75
2023/04/24 05:27:46;;;;;;;4.82;3.95;;;12.20;99.90;;;;;;5096964;28;20044;-73
2023/04/24 05:30:12;;;;;;;5.78;3.70;;;12.20;99.90;;;;;;5096746;28;20039;-73
2023/04/24 05:32:38;;;;;;;5.47;3.72;;;12.20;99.90;;;;;;5096868;28;20368;-73
2023/04/24 05:35:04;;;;;;;7.43;4.47;;;12.40;99.90;;;;;;5096829;28;20044;-73
2023/04/24 05:37:29;;;;;;;3.78;3.10;;;12.60;99.90;;;;;;5096482;28;20400;-73
2023/04/24 05:39:55;;;;;;;4.40;3.47;;;12.50;99.90;;;;;;5096746;28;20046;-73
2023/04/24 05:42:21;;;;;;;5.10;3.40;;;12.70;99.90;;;;;;5096240;28;20109;-72
2023/04/24 05:44:46;;;;;;;9.00;5.05;;;12.80;99.90;;;;;;5096707;28;20299;-73
2023/04/24 05:47:12;;;;;;;4.40;3.67;;;12.90;99.90;;;;;;5096698;28;20387;-72
2023/04/24 05:49:38;;;;;;;4.72;3.25;;;13.00;99.90;;;;;;5096716;28;20450;-72
2023/04/24 05:52:05;;;;;;;5.03;3.75;;;13.10;99.90;;;;;;5096641;28;20429;-73
2023/04/24 05:54:31;;;;;;;4.20;3.45;;;13.20;99.90;;;;;;5096380;28;20036;-73
2023/04/24 05:56:56;;;;;;;6.40;3.95;;;13.20;99.90;;;;;;5100002;28;20051;-72
2023/04/24 05:59:22;;;;;;;4.63;3.60;;;13.00;99.90;;;;;;5100676;28;20441;-72
2023/04/24 06:01:48;;;;;;;5.60;3.92;;;13.00;99.90;;;;;;5100226;28;20435;-72
2023/04/24 06:04:14;;;;;;;6.55;3.88;;;12.90;99.90;;;;;;5100540;28;20044;-72
2023/04/24 06:06:40;;;;;;;3.80;2.40;;;12.90;99.90;;;;;;5100444;28;20036;-72
2023/04/24 06:09:06;;;;;;;4.18;2.60;;;12.70;99.90;;;;;;5100459;28;20043;-72
2023/04/24 06:11:32;;;;;;;6.20;3.10;;;12.50;99.90;;;;;;5100059;28;20039;-73
2023/04/24 06:13:58;;;;;;;4.43;3.08;;;12.40;99.90;;;;;;5100396;28;20043;-73
2023/04/24 06:16:23;;;;;;;5.93;3.05;;;12.40;99.90;;;;;;5100590;28;20075;-73
2023/04/24 06:18:50;;;;;;;6.65;3.50;;;12.30;99.90;;;;;;5100290;28;20361;-72
2023/04/24 06:21:16;;;;;;;6.30;3.90;;;12.10;99.90;;;;;;5100227;28;20040;-72
2023/04/24 06:23:42;;;;;;;5.20;3.92;;;12.00;99.90;;;;;;5099779;28;20048;-72
2023/04/24 06:26:07;;;;;;;7.40;4.30;;;12.00;99.90;;;;;;5100133;28;20341;-73
2023/04/24 06:28:33;;;;;;;6.32;4.65;;;12.20;99.90;;;;;;5099749;28;20042;-73
2023/04/24 06:30:59;;;;;;;6.97;4.07;;;12.30;99.90;;;;;;5100056;28;20047;-72
2023/04/24 06:33:24;;;;;;;6.72;3.88;;;12.40;99.90;;;;;;5099989;28;20047;-72
2023/04/24 06:35:50;;;;;;;8.00;5.32;;;12.50;99.90;;;;;;5099960;28;20324;-72
2023/04/24 06:38:16;;;;;;;8.35;5.15;;;12.60;99.90;;;;;;5098659;28;20048;-73
2023/04/24 06:40:41;;;;;;;10.65;6.18;;;12.60;99.90;;;;;;5099503;28;20040;-73
2023/04/24 06:43:07;;;;;;;13.75;7.63;;;12.40;99.90;;;;;;5099756;28;20366;-73
2023/04/24 06:45:33;;;;;;;11.75;7.15;;;12.20;99.90;;;;;;5099786;28;20524;-73
2023/04/24 06:47:58;;;;;;;12.68;6.35;;;12.00;99.90;;;;;;5099696;28;20036;-72
2023/04/24 06:50:24;;;;;;;13.85;8.07;;;11.80;99.90;;;;;;5099275;28;20073;-72
2023/04/24 06:52:50;;;;;;;11.57;7.65;;;11.80;99.90;;;;;;5099689;28;20051;-72
2023/04/24 06:55:16;;;;;;;19.50;9.45;;;11.80;99.90;;;;;;5099682;28;20035;-72
2023/04/24 06:57:42;;;;;;;13.60;8.40;;;11.80;99.90;;;;;;5099569;28;20101;-72
2023/04/24 07:00:09;;;;;;;17.63;9.50;;;11.90;99.90;;;;;;5099491;28;20036;-73
2023/04/24 07:02:35;;;;;;;19.50;9.60;;;11.90;99.90;;;;;;5099380;28;20036;-73
2023/04/24 07:05:01;;;;;;;14.15;7.30;;;11.80;99.90;;;;;;5099396;28;20302;-68
2023/04/24 07:07:27;;;;;;;10.70;6.25;;;12.00;99.90;;;;;;5098148;28;20115;-68
2023/04/24 07:09:53;;;;;;;9.90;5.93;;;11.90;99.90;;;;;;5099025;28;20403;-69
2023/04/24 07:12:21;;;;;;;8.77;4.60;;;11.90;99.90;;;;;;5098829;28;20086;-70
2023/04/24 07:14:47;;;;;;;15.00;5.40;;;11.80;99.90;;;;;;5099253;28;20105;-70
2023/04/24 07:17:14;;;;;;;11.13;4.63;;;11.90;99.90;;;;;;5099179;28;20318;-70
2023/04/24 07:19:40;;;;;;;7.63;4.07;;;11.90;99.90;;;;;;5099114;28;20421;-70
2023/04/24 07:22:06;;;;;;;6.72;3.78;;;12.00;99.90;;;;;;5098272;28;20112;-71
2023/04/24 07:24:32;;;;;;;7.15;3.67;;;11.90;99.90;;;;;;5098429;28;20051;-70
2023/04/24 07:26:59;;;;;;;10.90;3.72;;;11.90;99.90;;;;;;5098981;28;20040;-69
2023/04/24 07:29:25;;;;;;;6.47;2.92;;;12.10;99.90;;;;;;5098943;28;20321;-68
2023/04/24 07:31:50;;;;;;;7.05;3.60;;;12.20;99.90;;;;;;5098907;28;20036;-69
2023/04/24 07:34:16;;;;;;;6.18;2.53;;;12.30;99.90;;;;;;5098834;28;20092;-68
2023/04/24 07:36:42;;;;;;;6.68;3.55;;;12.30;99.90;;;;;;5098553;28;20392;-69
2023/04/24 07:39:08;;;;;;;8.82;3.03;;;12.20;99.90;;;;;;5098784;28;20047;-69
2023/04/24 07:41:34;;;;;;;7.70;3.35;;;12.20;99.90;;;;;;5097951;28;20421;-68
2023/04/24 07:44:00;;;;;;;11.05;3.28;;;11.90;99.90;;;;;;5098256;28;20032;-68
2023/04/24 07:46:27;;;;;;;6.65;3.63;;;11.90;99.90;;;;;;5098580;28;20036;-68
2023/04/24 07:48:53;;;;;;;7.30;3.50;;;11.80;99.90;;;;;;5098532;28;20426;-68
2023/04/24 07:51:19;;;;;;;9.43;4.20;;;11.70;99.90;;;;;;5098540;28;20036;-68
2023/04/24 07:53:45;;;;;;;6.57;3.60;;;11.70;99.90;;;;;;5097486;28;20101;-67
2023/04/24 07:56:10;;;;;;;7.68;4.22;;;11.60;99.90;;;;;;5098385;28;20043;-68
2023/04/24 07:58:36;;;;;;;9.35;3.70;;;11.60;99.90;;;;;;5098618;28;20055;-68
2023/04/24 08:01:02;;;;;;;10.07;4.40;;;11.50;99.90;;;;;;5098306;28;20043;-68
2023/04/24 08:03:28;;;;;;;11.10;4.50;;;11.40;99.90;;;;;;5097161;28;20040;-68
2023/04/24 08:05:53;;;;;;;10.27;4.18;;;11.30;99.90;;;;;;5098222;28;20039;-67
2023/04/24 08:08:21;;;;;;;15.55;4.72;;;11.20;99.90;;;;;;5098177;28;20032;-67
2023/04/24 08:10:47;;;;;;;14.02;5.57;;;11.20;99.90;;;;;;5097763;28;20048;-69
2023/04/24 08:13:13;;;;;;;14.73;6.28;;;11.20;99.90;;;;;;5096757;28;20105;-68
2023/04/24 08:15:38;;;;;;;14.80;7.07;;;11.30;99.90;;;;;;5097748;28;20040;-69
2023/04/24 08:18:04;;;;;;;21.70;9.15;;;11.30;99.90;;;;;;5096284;28;20055;-69
2023/04/24 08:20:30;;;;;;;20.58;10.13;;;11.20;99.90;;;;;;5097676;28;20040;-69
2023/04/24 08:22:56;;;;;;;19.92;10.35;;;11.30;99.90;;;;;;5097414;28;20137;-68
2023/04/24 08:25:23;;;;;;;30.83;13.10;;;11.10;99.90;;;;;;5097901;28;20055;-69
2023/04/24 08:27:49;;;;;;;33.50;14.52;;;11.00;99.90;;;;;;5096616;28;20047;-68
2023/04/24 08:30:15;;;;;;;27.33;13.98;;;10.90;99.90;;;;;;5097751;28;20047;-69
2023/04/24 08:32:41;;;;;;;31.77;14.52;;;10.90;99.90;;;;;;5097743;28;20075;-69
2023/04/24 08:35:09;;;;;;;33.50;15.88;;;10.80;99.90;;;;;;5096702;28;20091;-68
2023/04/24 08:37:35;;;;;;;37.75;16.77;;;10.70;99.90;;;;;;5097631;28;20075;-69
2023/04/24 08:40:06;;;;;;;36.25;16.33;;;10.80;99.90;;;;;;5097272;28;20090;-68
2023/04/24 08:42:36;;;;;;;39.47;16.75;;;10.90;99.90;;;;;;5096917;28;20078;-68
2023/04/24 08:45:02;;;;;;;37.70;16.58;;;10.90;99.90;;;;;;5097550;28;20042;-68
2023/04/24 08:47:29;;;;;;;33.28;16.60;;;10.90;99.90;;;;;;5097475;28;20031;-68
2023/04/24 08:49:56;;;;;;;38.08;15.93;;;10.70;99.90;;;;;;5097469;28;20324;-68
2023/04/24 08:52:22;;;;;;;37.55;17.10;;;10.70;99.90;;;;;;5097058;28;20047;-68
2023/04/24 08:54:48;;;;;;;34.78;16.35;;;10.60;99.90;;;;;;5096064;28;20452;-68
2023/04/24 08:57:14;;;;;;;36.22;14.85;;;10.60;99.90;;;;;;5096976;28;20036;-68
2023/04/24 08:59:40;;;;;;;30.80;15.63;;;10.60;99.90;;;;;;5097292;28;20119;-68
2023/04/24 09:02:10;;;;;;;29.73;15.65;;;10.50;99.90;;;;;;5097126;28;20181;-68
2023/04/24 09:04:37;;;;;;;36.70;16.20;;;10.40;99.90;;;;;;5088165;28;20083;-68
2023/04/24 09:07:05;;;;;;;33.58;14.98;;;10.30;99.90;;;;;;5086772;28;20428;-68
2023/04/24 09:09:32;;;;;;;27.48;13.80;;;10.20;99.90;;;;;;5097036;28;20044;-68
2023/04/24 09:11:58;;;;;;;30.60;13.95;;;10.30;99.90;;;;;;5076498;28;20068;-68
2023/04/24 09:14:25;;;;;;;26.73;14.18;;;10.20;99.90;;;;;;5076648;28;20299;-68
2023/04/24 09:16:51;;;;;;;32.15;15.75;;;10.20;99.90;;;;;;5085826;28;20134;-68
2023/04/24 09:19:17;;;;;;;37.00;16.20;;;10.30;99.90;;;;;;5091485;28;20158;-68
2023/04/24 09:21:46;;;;;;;33.00;15.02;;;10.40;99.90;;;;;;5075196;28;20037;-68
2023/04/24 09:24:22;;;;;;;26.92;13.70;;;10.50;99.90;;;;;;5076389;28;20346;-68
2023/04/24 09:26:49;;;;;;;28.83;14.05;;;10.50;99.90;;;;;;5077066;28;20040;-68
2023/04/24 09:29:16;;;;;;;29.52;13.98;;;10.50;99.90;;;;;;5076691;28;20036;-67
2023/04/24 09:31:43;;;;;;;30.48;13.68;;;10.60;99.90;;;;;;5074712;28;20126;-68
2023/04/24 09:34:09;;;;;;;31.75;13.93;;;10.60;99.90;;;;;;5076366;28;20037;-68
2023/04/24 09:36:40;;;;;;;25.02;10.73;;;10.60;99.90;;;;;;5076604;28;20043;-68
2023/04/24 09:39:10;;;;;;;23.05;10.93;;;10.40;99.90;;;;;;5076614;28;20123;-68
2023/04/24 09:41:50;;;;;;;17.80;9.02;;;10.30;99.90;;;;;;5076196;28;20036;-68
2023/04/24 09:44:22;;;;;;;23.33;9.73;;;10.40;99.90;;;;;;5076590;28;20040;-68
2023/04/24 09:47:00;;;;;;;18.70;8.82;;;10.40;99.90;;;;;;5076573;28;20045;-68
2023/04/24 09:49:33;;;;;;;16.15;9.30;;;10.40;99.90;;;;;;5076456;28;20040;-68
2023/04/24 09:52:09;;;;;;;18.98;9.80;;;10.50;99.90;;;;;;5076373;28;20037;-69
2023/04/24 09:54:36;;;;;;;19.80;10.00;;;10.60;99.90;;;;;;5076122;28;20076;-69
2023/04/24 09:57:02;;;;;;;19.65;8.57;;;10.50;99.90;;;;;;5076153;28;20082;-68
2023/04/24 09:59:28;;;;;;;21.80;8.95;;;10.50;99.90;;;;;;5076435;28;20036;-68
2023/04/24 10:01:55;;;;;;;18.40;8.13;;;10.40;99.90;;;;;;5076360;28;20079;-68
2023/04/24 10:04:26;;;;;;;19.05;8.68;;;10.40;99.90;;;;;;5076382;28;20102;-67
2023/04/24 10:06:54;;;;;;;20.33;7.32;;;10.60;99.90;;;;;;5076423;28;20041;-67
2023/04/24 10:09:22;;;;;;;20.92;7.22;;;10.50;99.90;;;;;;5076289;28;20036;-67
2023/04/24 10:11:50;;;;;;;21.25;7.13;;;10.60;99.90;;;;;;5075938;28;20044;-68
2023/04/24 10:14:18;;;;;;;14.80;6.22;;;10.50;99.90;;;;;;5092222;28;20321;-69
2023/04/24 10:16:46;;;;;;;16.50;5.75;;;10.50;99.90;;;;;;5076297;28;20098;-67
2023/04/24 10:19:13;;;;;;;15.00;5.30;;;10.50;99.90;;;;;;5074494;28;20147;-67
2023/04/24 10:21:46;;;;;;;9.25;4.28;;;10.50;99.90;;;;;;5086981;28;20044;-68
2023/04/24 10:24:20;;;;;;;8.65;4.28;;;10.60;99.90;;;;;;5074571;28;20048;-68
2023/04/24 10:26:48;;;;;;;6.78;2.95;;;10.70;99.90;;;;;;5092424;28;20108;-68
2023/04/24 10:29:17;;;;;;;10.80;3.35;;;10.70;99.90;;;;;;5094249;28;20032;-67
2023/04/24 10:31:45;;;;;;;17.83;3.97;;;10.70;99.90;;;;;;5094871;28;20425;-68
2023/04/24 10:34:20;;;;;;;8.88;3.08;;;10.80;99.90;;;;;;5078683;28;20087;-71
2023/04/24 10:36:50;;;;;;;10.57;3.38;;;10.90;99.90;;;;;;5096394;28;20035;-68
2023/04/24 10:39:17;;;;;;;13.48;3.80;;;11.00;99.90;;;;;;5095935;28;20456;-68
2023/04/24 10:41:43;;;;;;;13.18;3.95;;;11.20;99.90;;;;;;5097031;28;20051;-68
2023/04/24 10:44:10;;;;;;;8.55;2.65;;;11.30;99.90;;;;;;5099698;28;20044;-68
2023/04/24 10:46:38;;;;;;;8.43;2.55;;;11.10;99.90;;;;;;5099774;28;20042;-68
2023/04/24 10:49:06;;;;;;;10.25;3.22;;;11.00;99.90;;;;;;5099469;28;20115;-68
2023/04/24 10:51:47;;;;;;;13.02;2.65;;;10.90;99.90;;;;;;5099356;28;20325;-67
2023/04/24 10:54:33;;;;;;;9.25;2.50;;;11.00;99.90;;;;;;5099631;28;20081;-67
2023/04/24 10:57:18;;;;;;;10.05;2.95;;;11.00;99.90;;;;;;5099698;28;20040;-68
2023/04/24 10:59:44;;;;;;;14.55;2.38;;;11.10;99.90;;;;;;5099551;28;20044;-66
2023/04/24 11:02:10;;;;;;;12.88;2.60;;;11.20;99.90;;;;;;5099429;28;20040;-66
2023/04/24 11:04:36;;;;;;;8.75;2.30;;;11.20;99.90;;;;;;5099048;28;20036;-66
2023/04/24 11:07:03;;;;;;;12.95;3.00;;;11.20;99.90;;;;;;5099361;28;20036;-66
2023/04/24 11:09:32;;;;;;;12.48;2.83;;;11.10;99.90;;;;;;5099399;28;20321;-66
2023/04/24 11:12:10;;;;;;;7.55;2.33;;;10.90;99.90;;;;;;5098909;28;20060;-67
2023/04/24 11:14:58;;;;;;;11.48;2.63;;;10.80;99.90;;;;;;5099278;28;20036;-66
2023/04/24 11:17:31;;;;;;;8.65;2.50;;;10.90;99.90;;;;;;5099205;28;20046;-66
2023/04/24 11:20:06;;;;;;;11.63;2.50;;;10.80;99.90;;;;;;5099173;28;20040;-68
2023/04/24 11:22:35;;;;;;;9.63;1.92;;;10.80;99.90;;;;;;5098879;28;20105;-67
2023/04/24 11:25:02;;;;;;;10.82;1.50;;;10.80;99.90;;;;;;5099032;28;20111;-67
2023/04/24 11:27:31;;;;;;;6.35;1.90;;;10.70;99.90;;;;;;5098709;28;20118;-67
2023/04/24 11:29:56;;;;;;;7.97;2.00;;;10.70;99.90;;;;;;5099347;28;20032;-67
2023/04/24 11:32:29;;;;;;;7.88;1.35;;;10.70;99.90;;;;;;5098891;28;20414;-67
2023/04/24 11:35:07;;;;;;;8.60;1.50;;;10.80;99.90;;;;;;5098844;28;20044;-67
2023/04/24 11:37:38;;;;;;;7.53;1.55;;;10.80;99.90;;;;;;5098837;28;20050;-67
2023/04/24 11:40:11;;;;;;;7.22;1.90;;;10.90;99.90;;;;;;5098811;28;20044;-66
2023/04/24 11:42:39;;;;;;;11.02;2.35;;;10.80;99.90;;;;;;5098268;28;20115;-67
2023/04/24 11:45:16;;;;;;;6.80;1.85;;;10.80;99.90;;;;;;5098713;28;20044;-67
2023/04/24 11:47:42;;;;;;;6.25;1.70;;;10.70;99.90;;;;;;5097562;28;20513;-67
2023/04/24 11:50:13;;;;;;;8.40;1.98;;;10.80;99.90;;;;;;5098257;28;20414;-66
2023/04/24 11:52:44;;;;;;;11.90;1.75;;;10.80;99.90;;;;;;5098180;28;20040;-67
2023/04/24 11:55:19;;;;;;;11.85;1.70;;;10.90;99.90;;;;;;5097968;28;20082;-67
2023/04/24 11:57:49;;;;;;;6.43;1.55;;;11.20;99.90;;;;;;5098082;28;20044;-67
2023/04/24 12:00:23;;;;;;;7.22;1.35;;;11.20;99.90;;;;;;5098393;28;20044;-67
2023/04/24 12:02:50;;;;;;;13.23;1.85;;;11.10;99.90;;;;;;5098304;28;20039;-67
2023/04/24 12:05:26;;;;;;;6.45;1.52;;;10.80;99.90;;;;;;5098330;28;20083;-67
2023/04/24 12:07:52;;;;;;;;;;;10.70;99.90;;;;;;5098759;28;20047;-67
2023/04/24 12:10:25;;;;;;;7.43;1.57;;;10.70;99.90;;;;;;5098173;28;19915;-67
2023/04/24 12:12:51;;;;;;;7.00;1.17;;;10.70;99.90;;;;;;5097737;28;20035;-67
2023/04/24 12:15:18;;;;;;;6.38;1.85;;;10.60;99.90;;;;;;5098077;28;20120;-68
2023/04/24 12:17:44;;;;;;;9.00;1.33;;;10.50;99.90;;;;;;5097100;28;20090;-67
2023/04/24 12:20:11;;;;;;;4.85;1.27;;;10.40;99.90;;;;;;5097965;28;20050;-68
2023/04/24 12:22:50;;;;;;;6.13;1.20;;;10.10;99.90;;;;;;5097711;28;20090;-69
2023/04/24 12:25:18;;;;;;;9.43;1.33;;;10.00;99.90;;;;;;5097617;28;20118;-67
2023/04/24 12:27:55;;;;;;;7.45;1.20;;;10.10;99.90;;;;;;5097852;28;20329;-67
2023/04/24 12:30:25;;;;;;;9.45;1.55;;;10.10;99.90;;;;;;5097875;28;20067;-67
2023/04/24 12:32:54;;;;;;;11.52;1.20;;;10.20;99.90;;;;;;5097800;28;20063;-67
2023/04/24 12:35:22;;;;;;;7.07;1.35;;;10.20;99.90;;;;;;5097779;28;20118;-67
2023/04/24 12:37:48;;;;;;;8.90;1.42;;;10.30;99.90;;;;;;5097365;28;20047;-67
2023/04/24 12:40:15;;;;;;;6.60;1.40;;;10.50;99.90;;;;;;5096682;28;20044;-67
2023/04/24 12:42:50;;;;;;;6.15;1.00;;;10.60;99.90;;;;;;5096801;28;20422;-67